createdAt,value
2022-12-07T00:01:48.615Z,9.00
2022-12-07T00:04:20.463Z,8.80
2022-12-07T00:06:53.844Z,9.80
2022-12-07T00:09:23.645Z,8.70
2022-12-07T00:11:53.152Z,8.40
2022-12-07T00:14:23.895Z,9.10
2022-12-07T00:16:53.965Z,8.30
2022-12-07T00:19:22.208Z,9.10
2022-12-07T00:21:51.852Z,9.00
2022-12-07T00:24:21.140Z,8.00
2022-12-07T00:26:49.266Z,8.40
2022-12-07T00:29:21.370Z,7.20
2022-12-07T00:31:50.910Z,9.30
2022-12-07T00:34:22.637Z,7.30
2022-12-07T00:36:52.397Z,7.90
2022-12-07T00:39:21.704Z,7.90
2022-12-07T00:41:49.911Z,6.80
2022-12-07T00:44:17.991Z,7.70
2022-12-07T00:46:48.127Z,8.00
2022-12-07T00:49:17.182Z,7.70
2022-12-07T00:51:45.075Z,7.70
2022-12-07T00:54:14.363Z,7.40
2022-12-07T00:56:43.992Z,6.90
2022-12-07T00:59:17.884Z,7.60
2022-12-07T01:01:46.073Z,7.50
2022-12-07T01:04:14.958Z,7.50
2022-12-07T01:06:43.099Z,7.90
2022-12-07T01:09:12.553Z,6.50
2022-12-07T01:11:40.483Z,7.10
2022-12-07T01:14:11.136Z,6.20
2022-12-07T01:16:41.573Z,6.50
2022-12-07T01:19:10.496Z,6.90
2022-12-07T01:21:40.647Z,7.60
2022-12-07T01:24:12.319Z,6.50
2022-12-07T01:26:40.239Z,6.80
2022-12-07T01:29:08.184Z,7.50
2022-12-07T01:31:36.450Z,6.90
2022-12-07T01:34:05.550Z,7.50
2022-12-07T01:36:37.159Z,7.80
2022-12-07T01:39:08.228Z,7.30
2022-12-07T01:41:45.927Z,7.50
2022-12-07T01:44:26.691Z,7.30
2022-12-07T01:46:58.228Z,6.60
2022-12-07T01:49:35.263Z,6.90
2022-12-07T01:52:15.874Z,6.80
2022-12-07T01:54:49.054Z,6.00
2022-12-07T01:57:19.106Z,5.90
2022-12-07T01:59:53.331Z,6.90
2022-12-07T02:02:32.972Z,5.90
2022-12-07T02:05:05.815Z,5.50
2022-12-07T02:07:38.129Z,6.20
2022-12-07T02:10:27.173Z,6.00
2022-12-07T02:13:20.627Z,6.60
2022-12-07T02:16:16.827Z,6.40
2022-12-07T02:19:07.390Z,6.60
2022-12-07T02:21:53.655Z,6.20
2022-12-07T02:24:53.672Z,6.00
2022-12-07T02:27:41.951Z,6.10
2022-12-07T02:30:15.627Z,6.00
2022-12-07T02:35:43.232Z,5.90
2022-12-07T02:38:27.414Z,6.20
2022-12-07T02:41:06.770Z,6.40
2022-12-07T02:43:53.584Z,6.70
2022-12-07T02:46:29.146Z,5.50
2022-12-07T02:49:02.683Z,6.80
2022-12-07T02:51:41.131Z,6.20
2022-12-07T02:54:19.722Z,6.20
2022-12-07T02:57:06.285Z,5.90
2022-12-07T03:00:13.719Z,6.10
2022-12-07T03:02:56.348Z,5.50
2022-12-07T03:08:26.450Z,5.00
2022-12-07T03:11:04.106Z,5.40
2022-12-07T03:13:41.071Z,5.50
2022-12-07T03:16:37.192Z,5.30
2022-12-07T03:19:15.199Z,5.00
2022-12-07T03:21:59.042Z,5.60
2022-12-07T03:24:37.309Z,6.20
2022-12-07T03:27:12.081Z,5.50
2022-12-07T03:30:03.217Z,6.20
2022-12-07T03:32:46.249Z,5.90
2022-12-07T03:35:31.273Z,5.20
2022-12-07T03:38:18.703Z,5.70
2022-12-07T03:40:52.241Z,6.20
2022-12-07T03:43:22.495Z,5.90
2022-12-07T03:46:04.167Z,6.20
2022-12-07T03:48:48.469Z,5.80
2022-12-07T03:51:34.878Z,5.70
2022-12-07T03:54:28.862Z,5.40
2022-12-07T03:56:59.576Z,6.00
2022-12-07T03:59:29.299Z,5.80
2022-12-07T04:02:03.669Z,5.60
2022-12-07T04:04:35.655Z,5.70
2022-12-07T04:07:05.051Z,6.20
2022-12-07T04:09:33.127Z,5.50
2022-12-07T04:12:00.972Z,5.90
2022-12-07T04:14:31.376Z,5.90
2022-12-07T04:17:01.225Z,5.90
2022-12-07T04:19:32.948Z,5.70
2022-12-07T04:22:03.455Z,6.10
2022-12-07T04:24:32.917Z,6.10
2022-12-07T04:27:02.173Z,5.90
2022-12-07T04:29:32.605Z,5.40
2022-12-07T04:32:00.430Z,5.40
2022-12-07T04:34:28.664Z,6.30
2022-12-07T04:36:57.794Z,6.00
2022-12-07T04:39:30.809Z,5.70
2022-12-07T04:42:01.205Z,5.90
2022-12-07T04:44:31.242Z,5.90
2022-12-07T04:47:00.711Z,6.10
2022-12-07T04:49:30.548Z,6.20
2022-12-07T04:51:58.462Z,6.10
2022-12-07T04:54:26.321Z,6.80
2022-12-07T04:56:54.378Z,6.20
2022-12-07T04:59:22.470Z,6.30
2022-12-07T05:01:51.993Z,6.70
2022-12-07T05:04:20.895Z,6.40
2022-12-07T05:06:48.784Z,7.60
2022-12-07T05:09:16.863Z,7.40
2022-12-07T05:11:44.739Z,7.30
2022-12-07T05:14:18.262Z,6.80
2022-12-07T05:16:52.143Z,6.80
2022-12-07T05:19:21.883Z,7.20
2022-12-07T05:21:49.777Z,6.40
2022-12-07T05:24:20.494Z,6.40
2022-12-07T05:26:49.822Z,6.40
2022-12-07T05:29:18.647Z,6.10
2022-12-07T05:31:47.809Z,6.70
2022-12-07T05:34:15.742Z,6.60
2022-12-07T05:36:43.796Z,7.30
2022-12-07T05:39:12.535Z,7.00
2022-12-07T05:42:12.747Z,6.30
2022-12-07T05:44:42.190Z,6.00
2022-12-07T05:47:12.182Z,6.60
2022-12-07T05:49:41.372Z,6.90
2022-12-07T05:52:09.278Z,6.70
2022-12-07T05:54:37.526Z,6.20
2022-12-07T05:57:05.691Z,5.80
2022-12-07T05:59:34.061Z,5.70
2022-12-07T06:02:06.900Z,6.70
2022-12-07T06:04:39.272Z,6.30
2022-12-07T06:07:08.123Z,5.80
2022-12-07T06:09:37.856Z,5.50
2022-12-07T06:12:25.950Z,5.60
2022-12-07T06:14:56.779Z,4.80
2022-12-07T06:17:25.872Z,4.90
2022-12-07T06:19:53.995Z,5.00
2022-12-07T06:22:21.851Z,5.30
2022-12-07T06:24:49.725Z,5.20
2022-12-07T06:27:17.620Z,6.00
2022-12-07T06:29:45.716Z,5.40
2022-12-07T06:32:13.837Z,5.00
2022-12-07T06:34:41.614Z,5.20
2022-12-07T06:37:09.532Z,4.60
2022-12-07T06:39:37.592Z,5.60
2022-12-07T06:42:05.774Z,5.70
2022-12-07T06:44:34.591Z,6.10
2022-12-07T06:47:31.756Z,5.50
2022-12-07T06:49:54.852Z,6.70
2022-12-07T06:52:23.105Z,5.90
2022-12-07T06:54:52.334Z,5.80
2022-12-07T06:57:22.400Z,6.00
2022-12-07T06:59:50.251Z,6.90
2022-12-07T07:02:19.591Z,6.50
2022-12-07T07:04:48.710Z,7.10
2022-12-07T07:07:16.562Z,6.10
2022-12-07T07:09:45.649Z,7.20
2022-12-07T07:12:13.743Z,6.50
2022-12-07T07:14:41.569Z,6.40
2022-12-07T07:17:10.122Z,7.00
2022-12-07T07:19:39.539Z,6.30
2022-12-07T07:22:08.177Z,7.10
2022-12-07T07:24:36.015Z,6.40
2022-12-07T07:27:03.857Z,7.00
2022-12-07T07:29:31.903Z,7.20
2022-12-07T07:32:06.656Z,7.40
2022-12-07T07:34:36.322Z,6.10
2022-12-07T07:37:05.872Z,7.00
2022-12-07T07:39:33.986Z,7.50
2022-12-07T07:42:01.822Z,7.80
2022-12-07T07:44:35.041Z,7.90
2022-12-07T07:47:05.425Z,8.00
2022-12-07T07:49:34.622Z,7.50
2022-12-07T07:52:02.763Z,7.30
2022-12-07T07:54:30.836Z,7.70
2022-12-07T07:57:00.185Z,8.00
2022-12-07T07:59:28.647Z,8.50
2022-12-07T08:01:56.556Z,8.00
2022-12-07T08:04:25.751Z,8.50
2022-12-07T08:06:55.024Z,8.30
2022-12-07T08:09:24.454Z,10.10
2022-12-07T08:11:52.276Z,7.40
2022-12-07T08:14:20.107Z,7.30
2022-12-07T08:16:48.222Z,7.30
2022-12-07T08:19:16.634Z,8.00
2022-12-07T08:21:44.782Z,8.10
2022-12-07T08:24:12.728Z,7.70
2022-12-07T08:26:42.444Z,7.20
2022-12-07T08:29:11.891Z,7.40
2022-12-07T08:31:39.882Z,7.60
2022-12-07T08:34:07.964Z,8.30
2022-12-07T08:36:38.457Z,8.30
2022-12-07T08:39:30.835Z,7.20
2022-12-07T08:41:55.639Z,8.20
2022-12-07T08:44:23.720Z,7.70
2022-12-07T08:46:58.042Z,8.20
2022-12-07T08:49:38.913Z,7.70
2022-12-07T08:52:08.467Z,7.60
2022-12-07T08:54:40.274Z,8.80
2022-12-07T08:57:09.664Z,8.40
2022-12-07T08:59:39.543Z,8.20
2022-12-07T09:02:07.511Z,7.90
2022-12-07T09:04:39.020Z,8.00
2022-12-07T09:07:08.421Z,8.60
2022-12-07T09:09:37.845Z,8.60
2022-12-07T09:12:06.044Z,7.40
2022-12-07T09:14:34.573Z,8.90
2022-12-07T09:17:12.576Z,7.90
2022-12-07T09:19:42.819Z,7.80
2022-12-07T09:22:13.305Z,8.10
2022-12-07T09:24:41.401Z,7.50
2022-12-07T09:27:09.476Z,7.90
2022-12-07T09:29:39.427Z,8.30
2022-12-07T09:32:11.585Z,8.50
2022-12-07T09:34:40.167Z,7.50
2022-12-07T09:37:09.850Z,8.20
2022-12-07T09:39:47.997Z,8.50
2022-12-07T09:42:26.121Z,8.40
2022-12-07T09:44:54.497Z,8.60
2022-12-07T09:47:23.951Z,7.90
2022-12-07T09:49:55.068Z,7.40
2022-12-07T09:52:33.074Z,7.50
2022-12-07T09:55:30.103Z,7.60
2022-12-07T09:58:00.201Z,7.80
2022-12-07T10:00:30.147Z,7.30
2022-12-07T10:02:58.184Z,7.50
2022-12-07T10:05:36.248Z,7.00
2022-12-07T10:08:06.718Z,7.20
2022-12-07T10:10:39.802Z,8.40
2022-12-07T10:13:11.627Z,7.30
2022-12-07T10:16:03.409Z,7.20
2022-12-07T10:18:38.920Z,7.40
2022-12-07T10:21:12.958Z,8.30
2022-12-07T10:24:02.473Z,7.30
2022-12-07T10:26:35.570Z,7.70
2022-12-07T10:29:22.781Z,8.10
2022-12-07T10:32:03.609Z,7.30
2022-12-07T10:34:39.691Z,8.70
2022-12-07T10:37:18.034Z,8.70
2022-12-07T10:39:57.559Z,8.60
2022-12-07T10:42:32.376Z,8.30
2022-12-07T10:45:17.418Z,8.40
2022-12-07T10:48:22.924Z,9.50
2022-12-07T10:51:10.235Z,9.80
2022-12-07T10:54:02.775Z,9.40
2022-12-07T10:56:52.733Z,10.00
2022-12-07T10:59:58.220Z,9.30
2022-12-07T11:03:03.217Z,8.60
2022-12-07T11:05:51.148Z,8.90
2022-12-07T11:08:41.854Z,8.90
2022-12-07T11:11:30.499Z,9.00
2022-12-07T11:14:55.124Z,7.20
2022-12-07T11:17:51.439Z,6.90
2022-12-07T11:20:41.947Z,6.90
2022-12-07T11:23:59.399Z,6.90
2022-12-07T11:27:05.352Z,6.80
2022-12-07T11:29:59.478Z,5.70
2022-12-07T11:33:01.140Z,6.20
2022-12-07T11:35:47.247Z,6.40
2022-12-07T11:38:27.973Z,6.70
2022-12-07T11:44:01.592Z,6.20
2022-12-07T11:46:47.381Z,7.00
2022-12-07T11:49:24.690Z,8.10
2022-12-07T11:52:00.858Z,8.60
2022-12-07T11:54:37.060Z,9.30
2022-12-07T11:57:18.449Z,8.30
2022-12-07T11:59:59.964Z,9.10
2022-12-07T12:02:44.270Z,8.40
2022-12-07T12:05:25.155Z,8.80
2022-12-07T12:11:14.083Z,8.50
2022-12-07T12:14:36.620Z,8.20
2022-12-07T12:17:19.589Z,8.50
2022-12-07T12:19:56.590Z,8.80
2022-12-07T12:22:42.160Z,9.60
2022-12-07T12:25:27.698Z,10.00
2022-12-07T12:28:01.016Z,9.80
2022-12-07T12:30:37.013Z,10.20
2022-12-07T12:33:32.475Z,9.70
2022-12-07T12:36:22.910Z,9.90
2022-12-07T12:39:08.397Z,10.80
2022-12-07T12:41:36.625Z,10.50
2022-12-07T12:44:21.196Z,10.60
2022-12-07T12:46:51.935Z,10.10
2022-12-07T12:49:23.742Z,10.30
2022-12-07T12:52:05.781Z,10.40
2022-12-07T12:54:37.752Z,10.00
2022-12-07T12:57:27.333Z,10.20
2022-12-07T12:59:56.312Z,9.90
2022-12-07T13:02:31.341Z,10.70
2022-12-07T13:05:09.982Z,10.70
2022-12-07T13:07:49.707Z,11.60
2022-12-07T13:10:31.016Z,11.60
2022-12-07T13:13:00.244Z,9.90
2022-12-07T13:15:42.058Z,10.70
2022-12-07T13:18:28.584Z,12.00
2022-12-07T13:21:09.913Z,11.00
2022-12-07T13:23:40.721Z,10.70
2022-12-07T13:26:39.562Z,10.90
2022-12-07T13:29:11.394Z,10.20
2022-12-07T13:31:58.404Z,11.90
2022-12-07T13:34:39.423Z,11.80
2022-12-07T13:37:30.521Z,11.30
2022-12-07T13:40:23.099Z,12.00
2022-12-07T13:43:07.138Z,11.80
2022-12-07T13:45:50.505Z,12.10
2022-12-07T13:48:36.168Z,11.10
2022-12-07T13:51:06.787Z,11.10
2022-12-07T13:53:34.871Z,10.20
2022-12-07T13:56:05.996Z,11.90
2022-12-07T13:58:35.610Z,10.20
2022-12-07T14:01:06.328Z,11.00
2022-12-07T14:03:37.298Z,10.10
2022-12-07T14:06:26.634Z,11.20
2022-12-07T14:09:19.940Z,10.30
2022-12-07T14:11:50.939Z,11.10
2022-12-07T14:14:36.055Z,12.30
2022-12-07T14:17:26.201Z,11.10
2022-12-07T14:20:02.321Z,10.20
2022-12-07T14:22:39.365Z,11.50
2022-12-07T14:25:14.515Z,12.40
2022-12-07T14:28:00.084Z,13.20
2022-12-07T14:30:36.028Z,13.10
2022-12-07T14:33:10.097Z,13.70
2022-12-07T14:35:42.720Z,13.70
2022-12-07T14:38:10.696Z,13.20
2022-12-07T14:40:40.817Z,12.20
2022-12-07T14:43:16.495Z,12.40
2022-12-07T14:45:44.490Z,12.60
2022-12-07T14:53:57.419Z,11.00
2022-12-07T14:56:30.177Z,11.70
2022-12-07T14:58:58.738Z,11.70
2022-12-07T15:01:29.119Z,13.50
2022-12-07T15:03:57.322Z,12.20
2022-12-07T15:06:27.454Z,12.60
2022-12-07T15:08:57.588Z,11.70
2022-12-07T15:11:25.602Z,13.10
2022-12-07T15:14:13.371Z,13.10
2022-12-07T15:17:07.512Z,14.00
2022-12-07T15:19:34.395Z,13.80
2022-12-07T15:22:02.530Z,14.30
2022-12-07T15:24:30.588Z,14.30
2022-12-07T15:26:58.556Z,14.60
2022-12-07T15:29:27.991Z,15.10
2022-12-07T15:31:58.741Z,14.50
2022-12-07T15:34:37.828Z,15.00
2022-12-07T15:37:12.735Z,16.30
2022-12-07T15:39:40.889Z,16.00
2022-12-07T15:42:09.366Z,16.00
2022-12-07T15:44:55.799Z,14.60
2022-12-07T15:47:25.159Z,14.40
2022-12-07T15:49:53.032Z,15.40
2022-12-07T15:52:21.158Z,15.40
2022-12-07T15:54:49.960Z,13.90
2022-12-07T15:57:22.150Z,14.60
2022-12-07T15:59:54.967Z,13.80
2022-12-07T16:02:25.010Z,14.10
2022-12-07T16:04:55.352Z,12.60
2022-12-07T16:07:24.665Z,13.30
2022-12-07T16:09:53.073Z,14.10
2022-12-07T16:12:21.140Z,12.50
2022-12-07T16:14:50.504Z,12.70
2022-12-07T16:17:18.400Z,12.90
2022-12-07T16:19:47.805Z,12.90
2022-12-07T16:22:15.904Z,11.70
2022-12-07T16:24:43.982Z,12.60
2022-12-07T16:27:12.019Z,12.70
2022-12-07T16:29:39.909Z,14.10
2022-12-07T16:32:09.171Z,14.30
2022-12-07T16:34:37.088Z,13.80
2022-12-07T16:37:05.933Z,13.50
2022-12-07T16:39:36.085Z,14.60
2022-12-07T16:42:07.122Z,14.30
2022-12-07T16:44:36.501Z,14.30
2022-12-07T16:47:05.769Z,14.70
2022-12-07T16:49:35.100Z,15.50
2022-12-07T16:52:19.394Z,15.00
2022-12-07T16:54:51.915Z,14.90
2022-12-07T16:57:23.481Z,14.20
2022-12-07T16:59:54.568Z,13.80
2022-12-07T17:02:23.873Z,14.30
2022-12-07T17:04:53.280Z,13.70
2022-12-07T17:07:21.121Z,13.30
2022-12-07T17:09:49.085Z,13.80
2022-12-07T17:12:19.924Z,13.30
2022-12-07T17:15:07.086Z,14.40
2022-12-07T17:17:35.515Z,15.60
2022-12-07T17:20:05.552Z,14.10
2022-12-07T17:22:33.888Z,14.60
2022-12-07T17:25:02.230Z,14.10
2022-12-07T17:27:33.329Z,16.00
2022-12-07T17:30:01.761Z,15.40
2022-12-07T17:32:30.905Z,15.50
2022-12-07T17:34:58.806Z,16.30
2022-12-07T17:37:27.554Z,16.00
2022-12-07T17:39:59.408Z,15.50
2022-12-07T17:42:38.140Z,16.40
2022-12-07T17:45:10.650Z,15.80
2022-12-07T17:47:41.161Z,18.30
2022-12-07T17:50:12.137Z,17.10
2022-12-07T17:53:00.460Z,18.60
2022-12-07T17:55:39.091Z,18.70
2022-12-07T17:58:17.868Z,18.50
2022-12-07T18:00:48.098Z,16.70
2022-12-07T18:03:16.806Z,16.90
2022-12-07T18:05:48.927Z,18.10
2022-12-07T18:08:17.067Z,17.00
2022-12-07T18:10:47.617Z,16.10
2022-12-07T18:13:34.125Z,16.30
2022-12-07T18:16:17.463Z,15.70
2022-12-07T18:18:52.206Z,16.20
2022-12-07T18:21:26.358Z,18.40
2022-12-07T18:23:58.457Z,16.80
2022-12-07T18:26:26.591Z,16.80
2022-12-07T18:28:58.426Z,16.50
2022-12-07T18:31:28.322Z,15.80
2022-12-07T18:34:04.222Z,15.10
2022-12-07T18:36:32.696Z,14.90
2022-12-07T18:39:02.145Z,15.50
2022-12-07T18:41:32.872Z,14.60
2022-12-07T18:44:04.317Z,14.80
2022-12-07T18:46:34.605Z,14.60
2022-12-07T18:49:06.176Z,16.60
2022-12-07T18:51:35.227Z,18.20
2022-12-07T18:54:05.202Z,15.70
2022-12-07T18:56:33.449Z,18.50
2022-12-07T18:59:22.805Z,18.20
2022-12-07T19:01:54.992Z,17.00
2022-12-07T19:06:53.346Z,16.20
2022-12-07T19:09:21.614Z,16.50
2022-12-07T19:11:52.384Z,18.30
2022-12-07T19:14:32.815Z,17.50
2022-12-07T19:17:13.599Z,17.70
2022-12-07T19:19:44.931Z,17.20
2022-12-07T19:22:19.711Z,17.10
2022-12-07T19:24:53.928Z,16.80
2022-12-07T19:27:24.391Z,17.30
2022-12-07T19:29:52.550Z,17.00
2022-12-07T19:32:20.570Z,16.00
2022-12-07T19:34:49.938Z,15.90
2022-12-07T19:37:19.088Z,16.80
2022-12-07T19:39:48.631Z,18.00
2022-12-07T19:42:16.886Z,16.50
2022-12-07T19:44:44.855Z,18.40
2022-12-07T19:47:15.797Z,17.90
2022-12-07T19:49:47.782Z,17.00
2022-12-07T19:52:15.641Z,15.50
2022-12-07T19:54:43.691Z,15.00
2022-12-07T19:57:17.066Z,14.90
2022-12-07T19:59:47.223Z,15.90
2022-12-07T20:02:16.989Z,15.10
2022-12-07T20:04:48.990Z,13.90
2022-12-07T20:07:18.235Z,15.50
2022-12-07T20:09:46.160Z,15.60
2022-12-07T20:12:32.774Z,15.10
2022-12-07T20:15:00.935Z,17.20
2022-12-07T20:17:30.185Z,16.70
2022-12-07T20:19:58.067Z,16.30
2022-12-07T20:22:26.028Z,15.70
2022-12-07T20:24:53.969Z,16.70
2022-12-07T20:27:21.940Z,18.30
2022-12-07T20:29:52.950Z,17.30
2022-12-07T20:32:20.859Z,16.90
2022-12-07T20:34:50.801Z,18.00
2022-12-07T20:37:18.747Z,16.80
2022-12-07T20:39:46.697Z,17.30
2022-12-07T20:42:33.194Z,16.70
2022-12-07T20:45:03.438Z,16.20
2022-12-07T20:47:34.616Z,15.80
2022-12-07T20:50:07.425Z,16.40
2022-12-07T20:52:35.337Z,16.40
2022-12-07T20:55:03.453Z,17.40
2022-12-07T20:57:32.729Z,16.80
2022-12-07T21:00:00.550Z,16.80
2022-12-07T21:02:28.535Z,15.70
2022-12-07T21:04:56.567Z,16.10
2022-12-07T21:07:26.004Z,14.70
2022-12-07T21:09:55.312Z,14.50
2022-12-07T21:12:23.150Z,15.90
2022-12-07T21:14:51.045Z,14.70
2022-12-07T21:17:18.850Z,16.30
2022-12-07T21:19:46.891Z,15.40
2022-12-07T21:22:14.739Z,15.10
2022-12-07T21:24:42.767Z,15.50
2022-12-07T21:27:10.682Z,14.60
2022-12-07T21:29:44.153Z,15.70
2022-12-07T21:32:14.508Z,15.30
2022-12-07T21:34:42.599Z,14.90
2022-12-07T21:37:10.555Z,15.30
2022-12-07T21:39:38.547Z,15.50
2022-12-07T21:42:08.050Z,15.20
2022-12-07T21:44:36.064Z,14.20
2022-12-07T21:47:05.552Z,16.90
2022-12-07T21:49:37.574Z,15.40
2022-12-07T21:52:05.607Z,15.80
2022-12-07T21:54:34.066Z,16.90
2022-12-07T21:57:03.669Z,15.40
2022-12-07T21:59:31.563Z,16.30
2022-12-07T22:01:59.490Z,15.70
2022-12-07T22:04:27.638Z,13.90
2022-12-07T22:06:57.349Z,15.30
2022-12-07T22:09:25.318Z,13.10
2022-12-07T22:11:53.390Z,13.70
2022-12-07T22:14:39.936Z,13.40
2022-12-07T22:17:07.855Z,12.90
2022-12-07T22:19:35.694Z,13.20
2022-12-07T22:22:03.578Z,15.40
2022-12-07T22:24:31.653Z,13.60
2022-12-07T22:26:59.614Z,13.10
2022-12-07T22:29:27.642Z,13.00
2022-12-07T22:31:55.577Z,13.80
2022-12-07T22:34:23.523Z,13.00
2022-12-07T22:36:51.383Z,13.60
2022-12-07T22:39:19.315Z,15.50
2022-12-07T22:41:47.241Z,14.30
2022-12-07T22:44:15.131Z,13.40
2022-12-07T22:46:43.060Z,13.40
2022-12-07T22:49:11.142Z,13.00
2022-12-07T22:51:44.311Z,13.30
2022-12-07T22:54:17.373Z,12.70
2022-12-07T22:56:45.467Z,13.60
2022-12-07T22:59:14.574Z,12.70
2022-12-07T23:01:44.565Z,12.40
2022-12-07T23:04:14.644Z,13.30
2022-12-07T23:06:42.607Z,12.20
2022-12-07T23:09:13.365Z,12.20
2022-12-07T23:12:02.356Z,12.00
2022-12-07T23:14:36.621Z,12.50
2022-12-07T23:17:06.433Z,13.00
2022-12-07T23:19:34.256Z,11.30
2022-12-07T23:22:02.229Z,11.80
2022-12-07T23:24:31.762Z,11.90
2022-12-07T23:26:59.583Z,12.00
2022-12-07T23:29:30.294Z,12.60
2022-12-07T23:31:58.176Z,11.50
2022-12-07T23:34:26.078Z,12.50
2022-12-07T23:36:54.073Z,12.20
2022-12-07T23:39:21.953Z,12.10
2022-12-07T23:41:49.844Z,11.10
2022-12-07T23:44:19.575Z,12.50
2022-12-07T23:46:47.490Z,12.10
2022-12-07T23:49:15.455Z,12.20
2022-12-07T23:51:43.289Z,11.80
2022-12-07T23:54:13.934Z,10.10
2022-12-07T23:56:42.007Z,11.20
2022-12-07T23:59:13.912Z,11.30
